Terminal Aerodrome Forecast
Issued by NWS

Home | Current Version | Previous Version | Text Only | Print | Product List | Glossary On
Versions: 1 2 3 4 5 6 7 8 9 10 11 12 13 14 15 16 17 18 19 20 21 22 23 24 25 26 27 28 29 30 31 32 33 34 35 36 37
000
FTUS43 KDTX 130523
TAFPTK
TAF
KPTK 130523Z 1306/1406 31011KT P6SM SCT040
      TEMPO 1306/1307 3SM -SN BKN026 OVC040
     FM131600 30012G20KT P6SM BKN040
     FM140100 29006KT P6SM SCT040=

USA.gov is the U.S. government's official web portal to all federal, state and local government web resources and services.